Time;durP1;ratioP1;P1;durP2;ratioP2;P2;SDS_P1;SDS_P2;PMS_P1;PMS_P2;Temp;Humidity;BMP_temperature;BMP_pressure;BME280_temperature;BME280_humidity;BME280_pressure;Samples;Min_cycle;Max_cycle;Signal;HPM_P1;HPM_P2
2022/04/04 00:00:10;;;;;;;8.77;7.00;;;;;;;;;;6204773;28;20064;-70
2022/04/04 00:03:12;;;;;;;9.82;6.72;;;;;;;;;;6202543;28;20077;-71
2022/04/04 00:06:14;;;;;;;10.75;7.00;;;;;;;;;;6203875;28;20046;-70
2022/04/04 00:09:16;;;;;;;12.77;8.45;;;;;;;;;;6205284;28;20061;-70
2022/04/04 00:12:17;;;;;;;10.63;6.88;;;;;;;;;;6208265;28;20273;-69
2022/04/04 00:15:20;;;;;;;10.38;6.80;;;;;;;;;;6207963;28;20485;-70
2022/04/04 00:18:22;;;;;;;11.05;7.30;;;;;;;;;;6208999;28;20046;-70
2022/04/04 00:21:24;;;;;;;10.52;6.68;;;;;;;;;;6206885;28;20058;-70
2022/04/04 00:24:26;;;;;;;9.95;7.72;;;;;;;;;;6210082;28;20057;-70
2022/04/04 00:27:28;;;;;;;10.00;7.18;;;;;;;;;;6209489;28;20117;-70
2022/04/04 00:30:31;;;;;;;8.95;6.85;;;;;;;;;;6209797;28;20069;-70
2022/04/04 00:33:33;;;;;;;11.70;7.43;;;;;;;;;;6205804;28;20637;-70
2022/04/04 00:36:34;;;;;;;8.90;6.75;;;;;;;;;;6212139;28;20405;-70
2022/04/04 00:39:36;;;;;;;10.77;8.13;;;;;;;;;;6210397;28;20050;-70
2022/04/04 00:42:39;;;;;;;11.63;7.15;;;;;;;;;;6213171;28;20049;-70
2022/04/04 00:45:46;;;;;;;9.45;7.07;;;;;;;;;;6214015;28;20636;-70
2022/04/04 00:48:47;;;;;;;11.57;7.55;;;;;;;;;;6217062;28;20180;-70
2022/04/04 00:51:49;;;;;;;9.35;7.00;;;;;;;;;;6215539;28;20061;-70
2022/04/04 00:54:51;;;;;;;8.45;7.10;;;;;;;;;;6205978;28;20412;-70
2022/04/04 00:57:56;;;;;;;10.23;7.60;;;;;;;;;;6209162;28;20410;-70
2022/04/04 01:00:59;;;;;;;12.50;7.47;;;;;;;;;;6207578;28;20201;-70
2022/04/04 01:04:01;;;;;;;11.43;7.28;;;;;;;;;;6207048;28;20185;-70
2022/04/04 01:07:03;;;;;;;12.30;7.95;;;;;;;;;;6202909;28;20061;-70
2022/04/04 01:10:07;;;;;;;11.10;6.82;;;;;;;;;;6201577;28;20062;-70
2022/04/04 01:13:09;;;;;;;9.93;7.70;;;;;;;;;;6204988;28;20132;-70
2022/04/04 01:16:12;;;;;;;10.98;7.30;;;;;;;;;;6204910;28;20129;-70
2022/04/04 01:19:14;;;;;;;10.32;7.47;;;;;;;;;;6205013;28;20066;-70
2022/04/04 01:22:16;;;;;;;9.85;6.72;;;;;;;;;;6206691;28;20077;-70
2022/04/04 01:25:23;;;;;;;9.63;7.47;;;;;;;;;;6204409;28;20386;-70
2022/04/04 01:28:25;;;;;;;9.35;7.47;;;;;;;;;;6204156;28;20062;-70
2022/04/04 01:31:27;;;;;;;10.70;7.57;;;;;;;;;;6206563;28;20058;-70
2022/04/04 01:34:29;;;;;;;10.15;7.50;;;;;;;;;;6207255;28;20108;-70
2022/04/04 01:37:31;;;;;;;11.35;7.53;;;;;;;;;;6208205;28;20395;-69
2022/04/04 01:40:34;;;;;;;9.00;7.38;;;;;;;;;;6210063;28;20461;-70
2022/04/04 01:43:35;;;;;;;10.40;7.82;;;;;;;;;;6209773;28;20050;-70
2022/04/04 01:46:37;;;;;;;11.50;7.75;;;;;;;;;;6211019;28;20105;-70
2022/04/04 01:49:38;;;;;;;12.55;8.18;;;;;;;;;;6207093;28;20442;-70
2022/04/04 01:52:40;;;;;;;11.88;7.85;;;;;;;;;;6206055;28;20503;-69
2022/04/04 01:55:43;;;;;;;11.90;7.55;;;;;;;;;;6202378;28;20144;-70
2022/04/04 01:58:45;;;;;;;10.55;7.93;;;;;;;;;;6204513;28;20050;-70
2022/04/04 02:01:47;;;;;;;11.90;8.50;;;;;;;;;;6204865;28;20076;-69
2022/04/04 02:04:48;;;;;;;11.25;8.60;;;;;;;;;;6205040;28;20046;-70
2022/04/04 02:07:50;;;;;;;29.15;21.08;;;;;;;;;;6206983;28;20561;-70
2022/04/04 02:10:53;;;;;;;47.50;26.58;;;;;;;;;;6205769;28;20818;-70
2022/04/04 02:13:56;;;;;;;27.23;18.33;;;;;;;;;;6205996;28;20130;-69
2022/04/04 02:16:57;;;;;;;21.50;13.82;;;;;;;;;;6206018;28;20095;-70
2022/04/04 02:19:59;;;;;;;16.90;12.95;;;;;;;;;;6209883;28;20049;-70
2022/04/04 02:23:01;;;;;;;16.95;11.50;;;;;;;;;;6206990;28;20064;-69
2022/04/04 02:26:05;;;;;;;17.60;11.63;;;;;;;;;;6206143;28;20062;-69
2022/04/04 02:29:06;;;;;;;12.57;9.80;;;;;;;;;;6205098;28;20125;-69
2022/04/04 02:32:09;;;;;;;12.77;9.68;;;;;;;;;;6206118;28;20578;-68
2022/04/04 02:35:11;;;;;;;13.77;9.55;;;;;;;;;;6208633;28;20132;-70
2022/04/04 02:38:12;;;;;;;10.70;8.75;;;;;;;;;;6207665;28;20053;-70
2022/04/04 02:41:16;;;;;;;12.15;8.93;;;;;;;;;;6208105;28;20046;-71
2022/04/04 02:44:18;;;;;;;12.73;9.38;;;;;;;;;;6203872;28;20108;-70
2022/04/04 02:47:19;;;;;;;11.95;8.38;;;;;;;;;;6207583;28;20442;-70
2022/04/04 02:50:22;;;;;;;14.45;9.43;;;;;;;;;;6210367;28;20201;-70
2022/04/04 02:53:24;;;;;;;12.57;9.13;;;;;;;;;;6204532;28;20653;-70
2022/04/04 02:56:29;;;;;;;12.20;9.25;;;;;;;;;;6207349;28;20072;-70
2022/04/04 02:59:31;;;;;;;12.77;8.85;;;;;;;;;;6210319;28;20497;-70
2022/04/04 03:02:33;;;;;;;12.55;9.15;;;;;;;;;;6216015;28;20042;-70
2022/04/04 03:05:35;;;;;;;11.18;9.15;;;;;;;;;;6208075;28;20074;-70
2022/04/04 03:08:37;;;;;;;14.30;9.45;;;;;;;;;;6208033;28;20045;-70
2022/04/04 03:11:40;;;;;;;11.82;9.25;;;;;;;;;;6209333;28;20153;-70
2022/04/04 03:14:42;;;;;;;13.98;9.20;;;;;;;;;;6210629;28;20442;-70
2022/04/04 03:17:45;;;;;;;13.48;9.05;;;;;;;;;;6210084;28;20052;-70
2022/04/04 03:20:46;;;;;;;11.70;9.93;;;;;;;;;;6212669;28;20446;-70
2022/04/04 03:23:48;;;;;;;14.13;9.88;;;;;;;;;;6213345;28;20137;-70
2022/04/04 03:26:51;;;;;;;12.60;9.98;;;;;;;;;;6215389;28;20054;-70
2022/04/04 03:29:53;;;;;;;12.55;9.50;;;;;;;;;;6210164;28;20076;-70
2022/04/04 03:32:57;;;;;;;12.27;9.20;;;;;;;;;;6214225;28;20077;-70
2022/04/04 03:35:59;;;;;;;12.70;9.25;;;;;;;;;;6209647;28;20114;-70
2022/04/04 03:39:01;;;;;;;14.02;10.18;;;;;;;;;;6212011;28;20038;-70
2022/04/04 03:42:05;;;;;;;13.30;10.10;;;;;;;;;;6210582;28;20048;-70
2022/04/04 03:45:08;;;;;;;13.70;9.77;;;;;;;;;;6204329;28;20430;-70
2022/04/04 03:48:10;;;;;;;11.80;9.75;;;;;;;;;;6211909;28;20054;-70
2022/04/04 03:51:12;;;;;;;13.50;10.30;;;;;;;;;;6202197;28;20165;-70
2022/04/04 03:54:14;;;;;;;12.80;9.35;;;;;;;;;;6202981;28;20042;-70
2022/04/04 03:57:17;;;;;;;12.73;9.32;;;;;;;;;;6210479;28;20499;-70
2022/04/04 04:00:20;;;;;;;13.30;9.55;;;;;;;;;;6202203;28;20042;-70
2022/04/04 04:03:21;;;;;;;13.35;9.52;;;;;;;;;;6205602;28;20058;-70
2022/04/04 04:06:23;;;;;;;11.50;9.07;;;;;;;;;;6204143;28;20072;-70
2022/04/04 04:09:25;;;;;;;12.88;9.13;;;;;;;;;;6204565;28;20129;-70
2022/04/04 04:12:28;;;;;;;11.50;9.18;;;;;;;;;;6205082;28;20084;-70
2022/04/04 04:15:30;;;;;;;6.88;5.75;;;;;;;;;;6208019;28;20147;-70
2022/04/04 04:18:33;;;;;;;12.35;8.95;;;;;;;;;;6206578;28;20054;-70
2022/04/04 04:21:35;;;;;;;11.95;8.80;;;;;;;;;;6206058;28;20478;-70
2022/04/04 04:24:37;;;;;;;12.48;9.10;;;;;;;;;;6208719;28;20375;-70
2022/04/04 04:27:40;;;;;;;12.70;8.10;;;;;;;;;;6210363;28;20050;-70
2022/04/04 04:30:41;;;;;;;11.65;8.43;;;;;;;;;;6213855;28;20054;-70
2022/04/04 04:33:43;;;;;;;14.27;9.05;;;;;;;;;;6213336;28;20120;-70
2022/04/04 04:36:45;;;;;;;13.25;8.00;;;;;;;;;;6215619;28;20050;-70
2022/04/04 04:39:47;;;;;;;12.73;7.90;;;;;;;;;;6216118;28;20836;-70
2022/04/04 04:42:52;;;;;;;12.82;7.25;;;;;;;;;;6214748;28;20054;-70
2022/04/04 04:45:54;;;;;;;9.85;7.38;;;;;;;;;;6218421;28;20042;-70
2022/04/04 04:48:55;;;;;;;10.45;7.28;;;;;;;;;;6229737;28;20046;-70
2022/04/04 04:51:57;;;;;;;11.18;6.97;;;;;;;;;;6221805;28;20051;-70
2022/04/04 04:55:00;;;;;;;11.27;8.00;;;;;;;;;;6201660;28;20498;-70
2022/04/04 04:58:03;;;;;;;8.75;7.03;;;;;;;;;;6205079;28;20054;-70
2022/04/04 05:01:04;;;;;;;11.88;7.72;;;;;;;;;;6201248;28;20748;-70
2022/04/04 05:04:06;;;;;;;9.40;7.15;;;;;;;;;;6202938;28;20228;-70
2022/04/04 05:07:08;;;;;;;9.98;6.72;;;;;;;;;;6203519;28;20151;-70
2022/04/04 05:10:10;;;;;;;10.57;6.65;;;;;;;;;;6204826;28;20041;-70
2022/04/04 05:13:13;;;;;;;9.02;6.70;;;;;;;;;;6204986;28;20073;-69
2022/04/04 05:16:15;;;;;;;9.83;6.37;;;;;;;;;;6206233;28;20447;-70
2022/04/04 05:19:18;;;;;;;9.15;6.47;;;;;;;;;;6205722;28;20464;-70
2022/04/04 05:22:19;;;;;;;9.07;6.35;;;;;;;;;;6205426;28;20487;-70
2022/04/04 05:25:21;;;;;;;8.27;6.20;;;;;;;;;;6206229;28;20091;-70
2022/04/04 05:28:24;;;;;;;9.23;6.32;;;;;;;;;;6208397;28;20185;-69
2022/04/04 05:31:26;;;;;;;9.45;6.63;;;;;;;;;;6208700;28;20073;-67
2022/04/04 05:34:27;;;;;;;7.93;5.75;;;;;;;;;;6208492;28;20073;-70
2022/04/04 05:37:29;;;;;;;9.05;5.68;;;;;;;;;;6210787;28;20184;-70
2022/04/04 05:40:31;;;;;;;9.45;6.90;;;;;;;;;;6211202;28;20111;-67
2022/04/04 05:43:34;;;;;;;11.48;6.22;;;;;;;;;;6212537;28;20183;-69
2022/04/04 05:46:36;;;;;;;8.23;7.32;;;;;;;;;;6212204;28;20042;-70
2022/04/04 05:49:37;;;;;;;9.77;7.10;;;;;;;;;;6205019;28;20462;-69
2022/04/04 05:52:39;;;;;;;11.35;7.32;;;;;;;;;;6207039;28;20046;-69
2022/04/04 05:55:41;;;;;;;9.05;6.93;;;;;;;;;;6206791;28;20050;-69
2022/04/04 05:58:44;;;;;;;12.95;7.63;;;;;;;;;;6209960;28;20050;-71
2022/04/04 06:01:45;;;;;;;10.43;7.70;;;;;;;;;;6208927;28;20057;-72
2022/04/04 06:04:47;;;;;;;11.77;7.65;;;;;;;;;;6210163;28;20503;-69
2022/04/04 06:07:49;;;;;;;13.90;8.10;;;;;;;;;;6209400;28;20486;-69
2022/04/04 06:10:50;;;;;;;11.52;8.27;;;;;;;;;;6198821;28;20058;-69
2022/04/04 06:13:53;;;;;;;11.35;7.88;;;;;;;;;;6207071;28;20072;-70
2022/04/04 06:16:55;;;;;;;11.45;8.25;;;;;;;;;;6206998;28;20137;-70
2022/04/04 06:19:57;;;;;;;10.52;8.27;;;;;;;;;;6203676;28;20696;-69
2022/04/04 06:23:20;;;;;;;12.10;8.13;;;;;;;;;;7316793;23;20033;31
2022/04/04 06:26:22;;;;;;;13.73;7.88;;;;;;;;;;6117471;29;20104;-69
2022/04/04 06:29:25;;;;;;;20.13;8.45;;;;;;;;;;6120487;28;20245;-70
2022/04/04 06:32:26;;;;;;;9.77;7.15;;;;;;;;;;6120777;29;20067;-69
2022/04/04 06:35:28;;;;;;;14.38;8.73;;;;;;;;;;6125133;28;20051;-70
2022/04/04 06:38:30;;;;;;;12.25;8.07;;;;;;;;;;6125823;29;20047;-70
2022/04/04 06:41:32;;;;;;;11.10;7.50;;;;;;;;;;6125947;29;20072;-70
2022/04/04 06:44:34;;;;;;;9.60;6.65;;;;;;;;;;6126796;29;20468;-70
2022/04/04 06:47:37;;;;;;;8.70;6.30;;;;;;;;;;6124250;29;20059;-68
2022/04/04 06:50:38;;;;;;;9.13;6.45;;;;;;;;;;6126431;29;20047;-69
2022/04/04 06:53:40;;;;;;;14.95;6.18;;;;;;;;;;6126392;29;20094;-69
2022/04/04 06:56:42;;;;;;;7.97;5.47;;;;;;;;;;6126555;29;20052;-70
2022/04/04 06:59:45;;;;;;;6.72;5.57;;;;;;;;;;6126595;29;20044;-70
2022/04/04 07:02:47;;;;;;;7.60;5.07;;;;;;;;;;6127152;29;20348;-70
2022/04/04 07:05:48;;;;;;;9.95;5.32;;;;;;;;;;6126300;29;20063;-70
2022/04/04 07:08:50;;;;;;;7.72;4.25;;;;;;;;;;6126342;29;20044;-70
2022/04/04 07:11:52;;;;;;;6.43;4.57;;;;;;;;;;6125501;29;20056;-70
2022/04/04 07:14:55;;;;;;;6.38;3.78;;;;;;;;;;6127058;29;20461;-70
2022/04/04 07:17:57;;;;;;;8.70;4.40;;;;;;;;;;6126516;28;20087;-69
2022/04/04 07:20:58;;;;;;;6.75;4.57;;;;;;;;;;6126353;29;20198;-69
2022/04/04 07:24:00;;;;;;;6.40;4.50;;;;;;;;;;6125902;28;20075;-69
2022/04/04 07:27:02;;;;;;;6.85;3.90;;;;;;;;;;6126660;28;20102;-69
2022/04/04 07:30:07;;;;;;;5.13;3.72;;;;;;;;;;6125809;28;20055;-70
2022/04/04 07:33:09;;;;;;;;;;;;;;;;;;6126025;28;20151;-69
2022/04/04 07:36:11;;;;;;;4.50;3.35;;;;;;;;;;6124236;28;19930;-70
2022/04/04 07:39:13;;;;;;;5.28;2.22;;;;;;;;;;6125930;28;20056;-70
2022/04/04 07:42:16;;;;;;;3.10;2.40;;;;;;;;;;6125945;28;20040;-70
2022/04/04 07:45:19;;;;;;;6.78;2.65;;;;;;;;;;6124942;28;20380;-71
2022/04/04 07:48:21;;;;;;;4.72;2.53;;;;;;;;;;6125950;28;20055;-70
2022/04/04 07:51:22;;;;;;;5.60;2.20;;;;;;;;;;6125690;28;20500;-70
2022/04/04 07:54:24;;;;;;;4.68;2.30;;;;;;;;;;6124827;28;20400;-70
2022/04/04 07:57:26;;;;;;;4.65;2.40;;;;;;;;;;6125039;28;20074;-70
2022/04/04 08:00:29;;;;;;;7.43;2.50;;;;;;;;;;6125952;28;20460;-70
2022/04/04 08:03:31;;;;;;;5.13;2.73;;;;;;;;;;6124887;28;20143;-70
2022/04/04 08:06:32;;;;;;;6.70;2.47;;;;;;;;;;6125807;28;20150;-70
2022/04/04 08:09:34;;;;;;;4.15;2.20;;;;;;;;;;6124010;28;20782;-70
2022/04/04 08:12:36;;;;;;;4.55;2.67;;;;;;;;;;6125835;28;20100;-70
2022/04/04 08:15:39;;;;;;;4.05;2.40;;;;;;;;;;6123836;28;20063;-73
2022/04/04 08:18:40;;;;;;;4.75;2.60;;;;;;;;;;6124027;29;20202;-73
2022/04/04 08:21:42;;;;;;;5.38;2.15;;;;;;;;;;6125442;28;20512;-72
2022/04/04 08:24:44;;;;;;;2.95;2.03;;;;;;;;;;6122929;28;20114;-70
2022/04/04 08:27:46;;;;;;;3.28;2.42;;;;;;;;;;6125109;28;20051;-71
2022/04/04 08:30:50;;;;;;;4.20;2.35;;;;;;;;;;6125645;28;20054;-70
2022/04/04 08:33:52;;;;;;;3.78;2.50;;;;;;;;;;6124429;28;20123;-72
2022/04/04 08:36:53;;;;;;;2.80;1.98;;;;;;;;;;6125199;28;20063;-71
2022/04/04 08:39:55;;;;;;;3.97;2.40;;;;;;;;;;6123726;28;20047;-71
2022/04/04 08:42:57;;;;;;;4.75;2.53;;;;;;;;;;6125079;28;20058;-72
2022/04/04 08:46:00;;;;;;;4.45;2.90;;;;;;;;;;6124536;28;20054;-71
2022/04/04 08:49:04;;;;;;;7.80;3.00;;;;;;;;;;6124811;28;20048;-71
2022/04/04 08:52:07;;;;;;;5.20;3.35;;;;;;;;;;6124441;28;20052;-72
2022/04/04 08:55:12;;;;;;;4.10;2.87;;;;;;;;;;6124816;28;20051;-72
2022/04/04 08:58:15;;;;;;;4.75;3.50;;;;;;;;;;6122760;28;20122;-71
2022/04/04 09:01:19;;;;;;;6.90;3.80;;;;;;;;;;6125002;28;20055;-70
2022/04/04 09:04:21;;;;;;;;;;;;;;;;;;6122013;28;20111;-71
2022/04/04 09:07:23;;;;;;;4.75;3.85;;;;;;;;;;6124740;28;20331;-71
2022/04/04 09:10:31;;;;;;;4.30;3.17;;;;;;;;;;6124123;28;20134;-72
2022/04/04 09:13:32;;;;;;;7.38;3.88;;;;;;;;;;6124098;28;20469;-71
2022/04/04 09:16:37;;;;;;;6.32;3.90;;;;;;;;;;6124256;28;20055;-71
2022/04/04 09:19:40;;;;;;;4.97;3.95;;;;;;;;;;6122204;28;20488;-72
2022/04/04 09:22:51;;;;;;;3.53;3.22;;;;;;;;;;6123503;28;20070;-71
2022/04/04 09:25:53;;;;;;;6.07;3.90;;;;;;;;;;6123400;28;20044;-71
2022/04/04 09:28:54;;;;;;;5.40;3.90;;;;;;;;;;6124146;28;20416;-72
2022/04/04 09:32:03;;;;;;;5.85;4.25;;;;;;;;;;6123145;28;20044;-71
2022/04/04 09:35:11;;;;;;;6.88;4.40;;;;;;;;;;6122286;28;20059;-72
2022/04/04 09:38:14;;;;;;;7.50;5.47;;;;;;;;;;6121255;28;20058;-72
2022/04/04 09:41:22;;;;;;;4.63;4.05;;;;;;;;;;6123711;28;20051;-71
2022/04/04 09:44:25;;;;;;;6.78;4.55;;;;;;;;;;6122880;28;20055;-72
2022/04/04 09:47:47;;;;;;;7.85;4.35;;;;;;;;;;6123429;28;20067;-72
2022/04/04 09:50:50;;;;;;;6.53;3.67;;;;;;;;;;6122216;28;20555;-72
2022/04/04 09:54:02;;;;;;;7.15;4.50;;;;;;;;;;6123517;28;20059;-71
2022/04/04 09:57:11;;;;;;;6.57;3.90;;;;;;;;;;6123089;28;20078;-71
2022/04/04 10:00:14;;;;;;;5.13;3.72;;;;;;;;;;6122797;28;20183;-70
2022/04/04 10:03:17;;;;;;;6.05;3.70;;;;;;;;;;6123113;28;20665;-70
2022/04/04 10:06:19;;;;;;;;;;;;;;;;;;6123518;28;20071;-70
2022/04/04 10:09:21;;;;;;;5.25;3.60;;;;;;;;;;6123049;28;19946;-71
2022/04/04 10:12:22;;;;;;;6.90;3.70;;;;;;;;;;6122886;28;20083;-71
2022/04/04 10:15:26;;;;;;;5.47;4.10;;;;;;;;;;6122004;28;20107;-70
2022/04/04 10:18:29;;;;;;;5.57;3.97;;;;;;;;;;6122827;28;20127;-71
2022/04/04 10:21:32;;;;;;;5.60;4.15;;;;;;;;;;6122454;28;20059;-71
2022/04/04 10:24:35;;;;;;;10.43;7.32;;;;;;;;;;6123131;28;20475;-73
2022/04/04 10:27:37;;;;;;;5.82;4.07;;;;;;;;;;6122239;28;20062;-71
2022/04/04 10:30:40;;;;;;;5.03;3.85;;;;;;;;;;6122092;28;20193;-71
2022/04/04 10:33:44;;;;;;;4.00;3.50;;;;;;;;;;6121188;28;20095;-72
2022/04/04 10:37:00;;;;;;;5.13;3.80;;;;;;;;;;6122109;28;20146;-72
2022/04/04 10:40:14;;;;;;;5.03;4.00;;;;;;;;;;6121397;28;20077;-72
2022/04/04 10:43:16;;;;;;;6.50;4.32;;;;;;;;;;6122251;28;20134;-71
2022/04/04 10:46:20;;;;;;;6.75;4.25;;;;;;;;;;6122471;28;20472;-72
2022/04/04 10:49:24;;;;;;;6.82;4.38;;;;;;;;;;6122826;28;20067;-72
2022/04/04 10:52:39;;;;;;;5.57;3.72;;;;;;;;;;6121874;28;20179;-72
2022/04/04 10:55:52;;;;;;;5.88;4.10;;;;;;;;;;6122862;28;20052;-70
2022/04/04 10:59:15;;;;;;;6.55;4.40;;;;;;;;;;6132467;28;20053;-72
2022/04/04 11:02:18;;;;;;;5.72;4.25;;;;;;;;;;6120008;28;20122;-71
2022/04/04 11:08:43;;;;;;;7.28;4.18;;;;;;;;;;6120140;28;20384;-72
2022/04/04 11:11:54;;;;;;;7.63;4.22;;;;;;;;;;6118377;28;20051;-72
2022/04/04 11:15:04;;;;;;;6.15;4.00;;;;;;;;;;6120206;28;20412;-70
2022/04/04 11:18:06;;;;;;;8.27;4.40;;;;;;;;;;6118829;28;20493;-72
2022/04/04 11:21:09;;;;;;;8.32;4.13;;;;;;;;;;6119873;28;20050;-71
2022/04/04 11:24:11;;;;;;;4.80;4.17;;;;;;;;;;6121893;28;20253;-71
2022/04/04 11:27:13;;;;;;;6.20;4.32;;;;;;;;;;6123071;29;20622;-72
2022/04/04 11:30:15;;;;;;;7.22;5.03;;;;;;;;;;6125039;28;20044;-70
2022/04/04 11:33:22;;;;;;;6.70;4.20;;;;;;;;;;6120638;28;20051;-74
2022/04/04 11:36:27;;;;;;;5.70;4.22;;;;;;;;;;6121511;28;20068;-70
2022/04/04 11:39:29;;;;;;;5.43;4.30;;;;;;;;;;6138728;28;20058;-69
2022/04/04 11:42:32;;;;;;;9.80;5.03;;;;;;;;;;6149613;28;20055;-70
2022/04/04 11:45:36;;;;;;;7.03;4.87;;;;;;;;;;6146701;28;20051;-70
2022/04/04 11:48:48;;;;;;;6.05;4.75;;;;;;;;;;6145637;28;20055;-70
2022/04/04 11:51:52;;;;;;;6.13;4.50;;;;;;;;;;6148094;28;20074;-70
2022/04/04 11:54:54;;;;;;;4.85;4.20;;;;;;;;;;6146055;28;20050;-74
2022/04/04 11:57:58;;;;;;;8.27;4.28;;;;;;;;;;6148624;28;20062;-72
2022/04/04 12:01:04;;;;;;;4.90;4.40;;;;;;;;;;6150455;28;20118;-70
2022/04/04 12:04:07;;;;;;;7.28;4.18;;;;;;;;;;6147051;28;20420;-72
2022/04/04 12:07:11;;;;;;;;;;;;;;;;;;6145350;28;20059;-72
2022/04/04 12:10:16;;;;;;;6.37;4.70;;;;;;;;;;6146323;28;19933;-70
2022/04/04 12:13:19;;;;;;;8.35;4.63;;;;;;;;;;6149739;28;20186;-70
2022/04/04 12:16:22;;;;;;;7.40;5.00;;;;;;;;;;6148822;28;20051;-70
2022/04/04 12:19:23;;;;;;;6.05;4.85;;;;;;;;;;6146138;28;20043;-71
2022/04/04 12:25:55;;;;;;;7.65;4.70;;;;;;;;;;6148018;28;20055;-72
2022/04/04 12:28:56;;;;;;;7.32;4.63;;;;;;;;;;6148379;28;20043;-72
2022/04/04 12:31:58;;;;;;;8.60;4.72;;;;;;;;;;6147687;28;20178;-72
2022/04/04 12:35:01;;;;;;;5.13;4.53;;;;;;;;;;6147548;28;20423;-72
2022/04/04 12:38:04;;;;;;;7.03;4.75;;;;;;;;;;6151805;28;20130;-72
2022/04/04 12:41:07;;;;;;;;;;;;;;;;;;6149497;28;20047;-72
2022/04/04 12:44:09;;;;;;;4.63;4.20;;;;;;;;;;6150154;28;19957;-70
2022/04/04 12:47:12;;;;;;;5.70;4.35;;;;;;;;;;6148725;28;20596;-70
2022/04/04 12:50:15;;;;;;;8.68;5.07;;;;;;;;;;6147523;28;20051;-71
2022/04/04 12:53:18;;;;;;;5.65;4.78;;;;;;;;;;6148371;28;20090;-71
2022/04/04 12:56:20;;;;;;;;;;;;;;;;;;6149069;28;20047;-71
2022/04/04 12:59:24;;;;;;;5.00;4.60;;;;;;;;;;6148913;28;19987;-72
2022/04/04 13:02:31;;;;;;;7.13;5.22;;;;;;;;;;6148861;28;20055;-72
2022/04/04 13:05:33;;;;;;;5.45;4.90;;;;;;;;;;6146502;28;20063;-72
2022/04/04 13:08:36;;;;;;;5.68;4.90;;;;;;;;;;6148123;28;20555;-72
2022/04/04 13:11:47;;;;;;;9.68;5.00;;;;;;;;;;6148816;28;20159;-72
2022/04/04 13:14:48;;;;;;;7.15;5.82;;;;;;;;;;6148476;28;20500;-72
2022/04/04 13:17:53;;;;;;;6.20;5.10;;;;;;;;;;6148335;28;20126;-72
2022/04/04 13:20:55;;;;;;;8.68;4.60;;;;;;;;;;6147972;28;20420;-72
2022/04/04 13:23:58;;;;;;;16.20;5.72;;;;;;;;;;6145480;28;20198;-72
2022/04/04 13:26:59;;;;;;;6.68;4.78;;;;;;;;;;6130012;28;20130;-72
2022/04/04 13:30:01;;;;;;;7.72;5.93;;;;;;;;;;6147886;28;20050;-72
2022/04/04 13:33:03;;;;;;;5.47;4.70;;;;;;;;;;6146801;28;20503;-71
2022/04/04 13:36:05;;;;;;;7.07;4.80;;;;;;;;;;6143906;28;20499;-71
2022/04/04 13:39:10;;;;;;;6.93;5.05;;;;;;;;;;6147773;28;20122;-72
2022/04/04 13:42:15;;;;;;;6.90;4.93;;;;;;;;;;6147227;28;20050;-72
2022/04/04 13:45:17;;;;;;;8.60;5.22;;;;;;;;;;6147132;28;20530;-72
2022/04/04 13:48:19;;;;;;;5.70;4.68;;;;;;;;;;6146659;28;20051;-72
2022/04/04 13:51:23;;;;;;;6.95;5.30;;;;;;;;;;6147382;28;20133;-72
2022/04/04 13:54:26;;;;;;;7.70;5.55;;;;;;;;;;6146547;28;20066;-72
2022/04/04 13:57:27;;;;;;;8.20;5.50;;;;;;;;;;6147258;28;20051;-72
2022/04/04 14:00:29;;;;;;;7.75;4.90;;;;;;;;;;6146355;28;20415;-72
2022/04/04 14:03:31;;;;;;;9.85;5.57;;;;;;;;;;6146712;28;20448;-72
2022/04/04 14:06:34;;;;;;;7.20;5.55;;;;;;;;;;6146456;28;20043;-72
2022/04/04 14:09:37;;;;;;;9.52;6.03;;;;;;;;;;6146160;28;20186;-72
2022/04/04 14:12:39;;;;;;;10.40;5.70;;;;;;;;;;6144601;28;20129;-73
2022/04/04 14:15:40;;;;;;;8.27;5.85;;;;;;;;;;6146386;28;20191;-72
2022/04/04 14:18:42;;;;;;;8.15;5.22;;;;;;;;;;6145413;28;20471;-71
2022/04/04 14:21:44;;;;;;;5.85;5.25;;;;;;;;;;6145718;28;20047;-72
2022/04/04 14:24:49;;;;;;;7.03;5.38;;;;;;;;;;6142233;28;20123;-71
2022/04/04 14:27:50;;;;;;;6.68;5.72;;;;;;;;;;6145135;28;20145;-71
2022/04/04 14:30:55;;;;;;;7.20;5.47;;;;;;;;;;6144694;28;20070;-71
2022/04/04 14:33:59;;;;;;;5.97;5.38;;;;;;;;;;6142306;28;20051;-72
2022/04/04 14:37:01;;;;;;;7.35;4.82;;;;;;;;;;6145068;28;20070;-72
2022/04/04 14:40:05;;;;;;;9.23;5.75;;;;;;;;;;6145601;28;20046;-72
2022/04/04 14:43:07;;;;;;;6.25;5.60;;;;;;;;;;6144298;28;20812;-72
2022/04/04 14:46:10;;;;;;;8.23;5.60;;;;;;;;;;6144738;28;20079;-71
2022/04/04 14:49:14;;;;;;;7.32;5.35;;;;;;;;;;6145098;28;20225;-72
2022/04/04 14:52:15;;;;;;;;;;;;;;;;;;6144070;28;20189;-71
2022/04/04 14:55:18;;;;;;;7.45;5.35;;;;;;;;;;6147067;28;19933;-72
2022/04/04 14:58:20;;;;;;;9.50;6.40;;;;;;;;;;6147344;28;20182;-72
2022/04/04 15:01:21;;;;;;;6.72;5.75;;;;;;;;;;6149688;28;20419;-72
2022/04/04 15:04:24;;;;;;;8.45;5.97;;;;;;;;;;6149533;28;20415;-71
2022/04/04 15:07:26;;;;;;;8.40;5.97;;;;;;;;;;6150559;28;20055;-72
2022/04/04 15:10:29;;;;;;;8.75;5.47;;;;;;;;;;6148891;28;20055;-71
2022/04/04 15:13:31;;;;;;;5.82;5.22;;;;;;;;;;6151083;28;20078;-72
2022/04/04 15:16:32;;;;;;;9.10;5.38;;;;;;;;;;6150241;28;20047;-72
2022/04/04 15:19:34;;;;;;;11.23;5.78;;;;;;;;;;6151197;28;20547;-72
2022/04/04 15:22:36;;;;;;;8.55;5.97;;;;;;;;;;6151475;28;20055;-73
2022/04/04 15:25:39;;;;;;;6.10;5.50;;;;;;;;;;6151297;28;20558;-73
2022/04/04 15:28:40;;;;;;;8.30;6.18;;;;;;;;;;6149258;28;20159;-73
2022/04/04 15:31:42;;;;;;;6.93;5.90;;;;;;;;;;6151114;28;20107;-72
2022/04/04 15:34:44;;;;;;;7.43;5.65;;;;;;;;;;6151078;28;20047;-73
2022/04/04 15:37:46;;;;;;;8.63;6.47;;;;;;;;;;6149331;28;20091;-73
2022/04/04 15:40:49;;;;;;;7.63;5.60;;;;;;;;;;6151003;28;20103;-72
2022/04/04 15:43:53;;;;;;;6.13;5.50;;;;;;;;;;6150923;28;20051;-73
2022/04/04 15:46:55;;;;;;;7.40;6.03;;;;;;;;;;6150445;28;20569;-75
2022/04/04 15:49:57;;;;;;;9.40;5.82;;;;;;;;;;6150888;28;20043;-72
2022/04/04 15:52:58;;;;;;;10.15;6.07;;;;;;;;;;6149148;28;20146;-72
2022/04/04 15:56:03;;;;;;;6.90;5.65;;;;;;;;;;6149781;28;20467;-72
2022/04/04 15:59:05;;;;;;;6.20;5.60;;;;;;;;;;6148084;28;20070;-72
2022/04/04 16:02:07;;;;;;;7.90;5.88;;;;;;;;;;6148608;28;20047;-73
2022/04/04 16:05:10;;;;;;;8.88;6.07;;;;;;;;;;6148457;28;20102;-71
2022/04/04 16:08:11;;;;;;;7.68;6.45;;;;;;;;;;6147153;28;20078;-71
2022/04/04 16:11:15;;;;;;;6.63;5.68;;;;;;;;;;6148519;28;20039;-72
2022/04/04 16:14:20;;;;;;;10.38;6.30;;;;;;;;;;6148280;28;20058;-72
2022/04/04 16:17:22;;;;;;;8.18;6.43;;;;;;;;;;6147688;28;20055;-72
2022/04/04 16:20:24;;;;;;;6.93;6.07;;;;;;;;;;6148759;28;20078;-72
2022/04/04 16:23:26;;;;;;;6.93;6.18;;;;;;;;;;6149047;28;21093;-72
2022/04/04 16:26:31;;;;;;;7.32;5.72;;;;;;;;;;6148341;28;20159;-72
2022/04/04 16:29:33;;;;;;;10.52;6.72;;;;;;;;;;6149561;28;20051;-72
2022/04/04 16:32:35;;;;;;;8.30;6.18;;;;;;;;;;6148466;28;20132;-72
2022/04/04 16:35:37;;;;;;;7.35;6.55;;;;;;;;;;6145796;28;20074;-70
2022/04/04 16:38:38;;;;;;;7.43;6.25;;;;;;;;;;6148166;28;20094;-71
2022/04/04 16:41:42;;;;;;;8.02;5.63;;;;;;;;;;6148481;28;20051;-72
2022/04/04 16:44:43;;;;;;;8.57;6.22;;;;;;;;;;6148263;28;20144;-72
2022/04/04 16:47:45;;;;;;;9.55;6.10;;;;;;;;;;6148208;28;20137;-72
2022/04/04 16:50:47;;;;;;;7.55;6.03;;;;;;;;;;6147913;28;20051;-72
2022/04/04 16:53:49;;;;;;;7.03;6.32;;;;;;;;;;6147662;28;20074;-72
2022/04/04 16:56:52;;;;;;;8.85;6.60;;;;;;;;;;6147563;28;20051;-72
2022/04/04 16:59:54;;;;;;;7.40;6.40;;;;;;;;;;6147530;28;20412;-72
2022/04/04 17:02:56;;;;;;;7.78;6.25;;;;;;;;;;6146744;28;20055;-72
2022/04/04 17:05:58;;;;;;;8.50;6.85;;;;;;;;;;6146431;28;20047;-72
2022/04/04 17:08:59;;;;;;;8.25;6.57;;;;;;;;;;6147454;28;20066;-72
2022/04/04 17:12:02;;;;;;;8.23;6.78;;;;;;;;;;6146173;28;20524;-72
2022/04/04 17:15:06;;;;;;;7.37;6.33;;;;;;;;;;6146342;28;20059;-72
2022/04/04 17:18:08;;;;;;;10.73;6.28;;;;;;;;;;6147020;28;20459;-72
2022/04/04 17:21:11;;;;;;;8.05;6.45;;;;;;;;;;6147334;28;20404;-72
2022/04/04 17:24:15;;;;;;;8.87;6.70;;;;;;;;;;6146392;28;20110;-71
2022/04/04 17:27:18;;;;;;;9.73;7.25;;;;;;;;;;6147730;28;20075;-72
2022/04/04 17:30:20;;;;;;;8.38;6.57;;;;;;;;;;6145101;28;20713;-71
2022/04/04 17:33:21;;;;;;;10.30;6.60;;;;;;;;;;6147764;28;20194;-72
2022/04/04 17:36:23;;;;;;;8.93;6.95;;;;;;;;;;6147205;28;20206;-72
2022/04/04 17:39:25;;;;;;;12.40;6.68;;;;;;;;;;6147607;28;20047;-72
2022/04/04 17:42:28;;;;;;;9.77;6.55;;;;;;;;;;6146885;28;20055;-72
2022/04/04 17:45:30;;;;;;;9.40;6.82;;;;;;;;;;6147276;28;20057;-72
2022/04/04 17:48:33;;;;;;;8.32;6.45;;;;;;;;;;6146727;28;20483;-72
2022/04/04 17:51:34;;;;;;;10.63;7.07;;;;;;;;;;6144960;28;20063;-71
2022/04/04 17:54:36;;;;;;;8.73;6.90;;;;;;;;;;6146729;28;20455;-72
2022/04/04 17:57:39;;;;;;;10.27;6.93;;;;;;;;;;6147151;28;20078;-72
2022/04/04 18:00:41;;;;;;;9.80;6.95;;;;;;;;;;6145858;28;20059;-71
2022/04/04 18:03:42;;;;;;;9.15;7.03;;;;;;;;;;6147476;28;20110;-72
2022/04/04 18:06:45;;;;;;;10.05;7.00;;;;;;;;;;6146646;28;20500;-72
2022/04/04 18:09:49;;;;;;;12.57;7.50;;;;;;;;;;6147042;28;20515;-71
2022/04/04 18:12:52;;;;;;;10.30;7.38;;;;;;;;;;6145208;28;20051;-72
2022/04/04 18:15:54;;;;;;;11.20;6.97;;;;;;;;;;6146998;28;20118;-71
2022/04/04 18:18:56;;;;;;;8.60;7.60;;;;;;;;;;6146755;28;20063;-71